createdAt,value
2023-02-16T00:01:25.974Z,19.77
2023-02-16T00:03:55.549Z,20.67
2023-02-16T00:06:25.275Z,19.63
2023-02-16T00:08:54.569Z,20.03
2023-02-16T00:11:44.995Z,19.50
2023-02-16T00:14:14.063Z,19.97
2023-02-16T00:16:42.118Z,19.87
2023-02-16T00:19:21.878Z,19.93
2023-02-16T00:21:53.439Z,20.23
2023-02-16T00:24:21.614Z,20.30
2023-02-16T00:26:50.169Z,19.87
2023-02-16T00:29:22.351Z,20.27
2023-02-16T00:31:50.810Z,19.63
2023-02-16T00:34:37.227Z,20.13
2023-02-16T00:37:08.334Z,20.03
2023-02-16T00:39:37.034Z,19.73
2023-02-16T00:42:07.271Z,19.83
2023-02-16T00:44:37.836Z,20.33
2023-02-16T00:47:19.339Z,21.03
2023-02-16T00:49:48.078Z,20.23
2023-02-16T00:52:35.267Z,21.83
2023-02-16T00:55:05.708Z,20.13
2023-02-16T00:57:36.819Z,20.77
2023-02-16T01:00:13.878Z,21.03
2023-02-16T01:02:44.821Z,20.77
2023-02-16T01:05:13.432Z,20.77
2023-02-16T01:08:00.530Z,20.50
2023-02-16T01:10:47.614Z,21.73
2023-02-16T01:13:16.643Z,21.87
2023-02-16T01:15:45.275Z,22.10
2023-02-16T01:18:14.991Z,20.90
2023-02-16T01:20:43.912Z,20.73
2023-02-16T01:23:14.459Z,20.77
2023-02-16T01:25:43.072Z,21.50
2023-02-16T01:28:19.888Z,22.27
2023-02-16T01:30:47.769Z,20.67
2023-02-16T01:33:15.666Z,21.67
2023-02-16T01:35:43.913Z,21.80
2023-02-16T01:38:18.839Z,21.03
2023-02-16T01:40:57.353Z,21.57
2023-02-16T01:43:30.505Z,20.40
2023-02-16T01:46:03.093Z,20.83
2023-02-16T01:48:33.296Z,20.37
2023-02-16T01:51:07.936Z,20.60
2023-02-16T01:53:42.695Z,20.60
2023-02-16T01:56:19.849Z,21.03
2023-02-16T01:58:50.113Z,22.07
2023-02-16T02:01:40.766Z,21.37
2023-02-16T02:04:48.069Z,21.63
2023-02-16T02:07:22.966Z,20.33
2023-02-16T02:10:00.421Z,21.03
2023-02-16T02:12:34.469Z,20.67
2023-02-16T02:15:02.444Z,21.60
2023-02-16T02:17:30.376Z,24.57
2023-02-16T02:20:07.881Z,21.07
2023-02-16T02:23:26.769Z,20.90
2023-02-16T02:26:39.021Z,22.00
2023-02-16T02:29:21.959Z,21.10
2023-02-16T02:32:00.813Z,20.90
2023-02-16T02:34:49.523Z,21.30
2023-02-16T02:37:26.523Z,21.37
2023-02-16T02:40:06.033Z,21.50
2023-02-16T02:42:44.782Z,21.00
2023-02-16T02:45:16.771Z,21.53
2023-02-16T02:47:48.023Z,20.57
2023-02-16T02:50:38.551Z,20.57
2023-02-16T02:53:12.536Z,20.67
2023-02-16T02:56:04.817Z,21.53
2023-02-16T02:59:06.301Z,20.83
2023-02-16T03:01:37.551Z,22.07
2023-02-16T03:04:08.905Z,20.40
2023-02-16T03:06:41.972Z,20.50
2023-02-16T03:09:14.126Z,20.80
2023-02-16T03:12:00.375Z,20.90
2023-02-16T03:14:34.040Z,21.37
2023-02-16T03:17:25.047Z,21.37
2023-02-16T03:20:11.155Z,22.23
2023-02-16T03:22:58.165Z,21.57
2023-02-16T03:25:48.937Z,22.57
2023-02-16T03:28:38.779Z,19.80
2023-02-16T03:31:11.666Z,21.47
2023-02-16T03:33:40.283Z,20.90
2023-02-16T03:36:09.413Z,21.60
2023-02-16T03:38:37.737Z,21.23
2023-02-16T03:41:06.485Z,21.33
2023-02-16T03:43:34.458Z,20.67
2023-02-16T03:46:02.385Z,19.83
2023-02-16T03:48:31.636Z,21.03
2023-02-16T03:50:59.483Z,20.90
2023-02-16T03:53:27.322Z,21.50
2023-02-16T03:55:55.155Z,20.53
2023-02-16T03:58:25.141Z,20.63
2023-02-16T04:00:53.622Z,20.70
2023-02-16T04:03:21.717Z,21.40
2023-02-16T04:05:50.979Z,20.90
2023-02-16T04:08:18.827Z,21.67
2023-02-16T04:10:46.811Z,21.23
2023-02-16T04:13:14.092Z,21.03
2023-02-16T04:15:42.344Z,21.17
2023-02-16T04:18:10.102Z,21.53
2023-02-16T04:20:37.884Z,21.00
2023-02-16T04:23:07.241Z,20.90
2023-02-16T04:25:35.468Z,21.73
2023-02-16T04:28:03.447Z,21.13
2023-02-16T04:30:32.396Z,21.80
2023-02-16T04:33:00.417Z,21.27
2023-02-16T04:35:28.479Z,21.23
2023-02-16T04:37:56.370Z,20.33
2023-02-16T04:40:25.621Z,20.53
2023-02-16T04:42:53.488Z,20.60
2023-02-16T04:45:21.301Z,22.07
2023-02-16T04:47:49.183Z,21.57
2023-02-16T04:50:29.724Z,21.53
2023-02-16T04:52:57.555Z,20.23
2023-02-16T04:55:26.709Z,21.17
2023-02-16T04:57:54.529Z,21.97
2023-02-16T05:00:22.604Z,20.07
2023-02-16T05:02:50.470Z,21.60
2023-02-16T05:05:18.588Z,22.70
2023-02-16T05:07:46.397Z,21.03
2023-02-16T05:10:14.232Z,21.30
2023-02-16T05:13:00.936Z,22.00
2023-02-16T05:15:28.897Z,20.30
2023-02-16T05:17:56.762Z,21.13
2023-02-16T05:20:45.397Z,21.37
2023-02-16T05:23:13.267Z,21.43
2023-02-16T05:25:41.159Z,21.03
2023-02-16T05:28:10.501Z,20.00
2023-02-16T05:30:38.274Z,20.90
2023-02-16T05:33:06.029Z,20.20
2023-02-16T05:35:34.775Z,20.43
2023-02-16T05:38:02.539Z,20.57
2023-02-16T05:40:30.301Z,21.63
2023-02-16T05:42:58.023Z,22.30
2023-02-16T05:45:27.131Z,21.33
2023-02-16T05:47:55.032Z,22.20
2023-02-16T05:50:22.790Z,20.93
2023-02-16T05:52:50.530Z,21.93
2023-02-16T05:55:18.423Z,22.10
2023-02-16T05:57:46.514Z,21.87
2023-02-16T06:00:15.532Z,22.57
2023-02-16T06:02:44.743Z,21.97
2023-02-16T06:05:12.676Z,21.23
2023-02-16T06:07:41.004Z,21.67
2023-02-16T06:10:09.776Z,22.80
2023-02-16T06:12:37.640Z,23.13
2023-02-16T06:15:05.914Z,23.63
2023-02-16T06:17:33.801Z,22.80
2023-02-16T06:20:03.053Z,23.07
2023-02-16T06:22:30.934Z,23.43
2023-02-16T06:24:58.811Z,22.60
2023-02-16T06:27:28.695Z,23.27
2023-02-16T06:29:56.635Z,22.00
2023-02-16T06:32:24.634Z,22.40
2023-02-16T06:34:52.608Z,22.00
2023-02-16T06:37:22.338Z,21.63
2023-02-16T06:39:50.104Z,22.50
2023-02-16T06:42:18.167Z,22.40
2023-02-16T06:44:45.932Z,23.00
2023-02-16T06:47:13.670Z,23.43
2023-02-16T06:49:41.572Z,21.93
2023-02-16T06:52:09.348Z,23.23
2023-02-16T06:54:38.460Z,21.80
2023-02-16T06:57:06.342Z,22.07
2023-02-16T06:59:34.219Z,21.77
2023-02-16T07:02:02.017Z,21.87
2023-02-16T07:04:30.021Z,20.97
2023-02-16T07:06:57.981Z,19.87
2023-02-16T07:09:26.069Z,20.90
2023-02-16T07:11:55.414Z,21.00
2023-02-16T07:14:23.380Z,21.00
2023-02-16T07:16:51.230Z,20.67
2023-02-16T07:19:19.270Z,21.17
2023-02-16T07:21:47.022Z,20.23
2023-02-16T07:24:14.822Z,20.47
2023-02-16T07:26:42.602Z,19.97
2023-02-16T07:29:11.786Z,19.57
2023-02-16T07:31:39.719Z,19.97
2023-02-16T07:34:07.686Z,18.17
2023-02-16T07:36:36.015Z,19.43
2023-02-16T07:39:04.461Z,19.77
2023-02-16T07:41:32.281Z,18.43
2023-02-16T07:44:08.056Z,19.57
2023-02-16T07:46:38.698Z,19.90
2023-02-16T07:49:06.827Z,19.83
2023-02-16T07:51:35.164Z,18.63
2023-02-16T07:54:03.011Z,18.73
2023-02-16T07:56:33.432Z,19.67
2023-02-16T07:59:02.884Z,19.50
2023-02-16T08:01:31.018Z,19.80
2023-02-16T08:04:00.183Z,19.13
2023-02-16T08:06:28.141Z,17.87
2023-02-16T08:08:55.965Z,18.87
2023-02-16T08:11:25.668Z,19.10
2023-02-16T08:13:53.838Z,18.70
2023-02-16T08:16:23.655Z,18.20
2023-02-16T08:18:52.316Z,18.83
2023-02-16T08:21:24.076Z,19.80
2023-02-16T08:23:55.051Z,18.90
2023-02-16T08:26:24.379Z,17.80
2023-02-16T08:28:52.654Z,16.53
2023-02-16T08:31:23.158Z,17.57
2023-02-16T08:33:51.961Z,17.43
2023-02-16T08:36:23.541Z,18.17
2023-02-16T08:38:52.201Z,17.33
2023-02-16T08:41:20.705Z,18.43
2023-02-16T08:43:48.706Z,18.83
2023-02-16T08:46:17.656Z,17.40
2023-02-16T08:48:47.564Z,18.23
2023-02-16T08:51:17.569Z,18.93
2023-02-16T08:53:47.534Z,16.73
2023-02-16T08:56:16.851Z,17.40
2023-02-16T08:58:45.059Z,17.87
2023-02-16T09:01:15.459Z,17.23
2023-02-16T09:03:45.111Z,18.13
2023-02-16T09:06:15.181Z,17.20
2023-02-16T09:08:43.317Z,17.27
2023-02-16T09:11:15.491Z,17.50
2023-02-16T09:13:44.675Z,19.03
2023-02-16T09:16:15.636Z,17.40
2023-02-16T09:18:45.722Z,17.40
2023-02-16T09:21:15.852Z,18.33
2023-02-16T09:23:47.388Z,18.17
2023-02-16T09:26:17.548Z,17.20
2023-02-16T09:28:46.245Z,18.13
2023-02-16T09:31:16.281Z,17.93
2023-02-16T09:33:45.427Z,18.80
2023-02-16T09:36:14.695Z,18.17
2023-02-16T09:38:43.170Z,17.40
2023-02-16T09:41:37.921Z,17.00
2023-02-16T09:44:18.093Z,16.63
2023-02-16T09:46:47.556Z,17.43
2023-02-16T09:49:25.599Z,16.47
2023-02-16T09:52:01.722Z,15.70
2023-02-16T09:54:40.532Z,15.70
2023-02-16T09:57:19.474Z,15.37
2023-02-16T09:59:57.628Z,16.13
2023-02-16T10:02:39.961Z,15.00
2023-02-16T10:05:26.833Z,15.02
2023-02-16T10:08:01.078Z,14.60
2023-02-16T10:10:35.353Z,14.98
2023-02-16T10:13:13.718Z,14.93
2023-02-16T10:15:45.325Z,13.60
2023-02-16T10:18:22.109Z,13.68
2023-02-16T10:20:55.318Z,13.95
2023-02-16T10:23:45.390Z,15.10
2023-02-16T10:26:21.737Z,15.50
2023-02-16T10:28:54.488Z,14.05
2023-02-16T10:31:26.431Z,12.70
2023-02-16T10:34:04.731Z,13.85
2023-02-16T10:36:50.533Z,14.25
2023-02-16T10:39:25.956Z,12.52
2023-02-16T10:42:03.583Z,13.93
2023-02-16T10:44:39.249Z,13.40
2023-02-16T10:47:14.251Z,13.85
2023-02-16T10:49:42.303Z,13.98
2023-02-16T10:52:11.607Z,14.52
2023-02-16T10:54:39.760Z,14.55
2023-02-16T10:57:14.231Z,13.52
2023-02-16T10:59:45.753Z,13.03
2023-02-16T11:02:20.186Z,14.60
2023-02-16T11:04:52.364Z,15.83
2023-02-16T11:07:22.169Z,12.73
2023-02-16T11:09:53.020Z,14.82
2023-02-16T11:12:30.086Z,15.13
2023-02-16T11:15:03.247Z,15.63
2023-02-16T11:17:33.211Z,16.10
2023-02-16T11:20:05.647Z,15.93
2023-02-16T11:22:36.962Z,15.75
2023-02-16T11:25:26.807Z,15.68
2023-02-16T11:27:58.180Z,16.58
2023-02-16T11:30:34.846Z,15.85
2023-02-16T11:33:04.745Z,16.20
2023-02-16T11:35:42.173Z,16.67
2023-02-16T11:38:27.299Z,17.42
2023-02-16T11:40:56.430Z,17.50
2023-02-16T11:43:28.639Z,18.20
2023-02-16T11:46:03.842Z,17.75
2023-02-16T11:48:34.491Z,17.20
2023-02-16T11:51:08.638Z,17.33
2023-02-16T11:53:38.523Z,16.67
2023-02-16T11:56:19.835Z,17.05
2023-02-16T11:59:04.774Z,17.17
2023-02-16T12:01:48.154Z,16.75
2023-02-16T12:04:30.134Z,18.45
2023-02-16T12:07:15.600Z,17.10
2023-02-16T12:09:54.709Z,16.92
2023-02-16T12:12:33.786Z,18.25
2023-02-16T12:15:09.012Z,18.67
2023-02-16T12:17:50.059Z,16.42
2023-02-16T12:20:32.714Z,18.05
2023-02-16T12:23:12.142Z,18.85
2023-02-16T12:25:47.667Z,17.58
2023-02-16T12:28:24.749Z,17.65
2023-02-16T12:31:02.368Z,18.55
2023-02-16T12:33:42.437Z,18.80
2023-02-16T12:36:37.029Z,18.42
2023-02-16T12:39:17.689Z,19.30
2023-02-16T12:42:14.544Z,18.88
2023-02-16T12:44:48.061Z,18.55
2023-02-16T12:47:21.617Z,18.77
2023-02-16T12:49:54.865Z,19.27
2023-02-16T12:52:31.958Z,19.48
2023-02-16T12:55:12.383Z,19.60
2023-02-16T12:57:45.744Z,19.90
2023-02-16T13:00:21.465Z,19.25
2023-02-16T13:02:54.855Z,21.35
2023-02-16T13:05:29.821Z,20.48
2023-02-16T13:08:06.769Z,19.35
2023-02-16T13:10:39.291Z,19.83
2023-02-16T13:13:14.588Z,19.55
2023-02-16T13:15:44.743Z,19.98
2023-02-16T13:18:20.763Z,21.73
2023-02-16T13:20:54.522Z,18.75
2023-02-16T13:23:37.929Z,21.08
2023-02-16T13:26:24.552Z,20.20
2023-02-16T13:29:12.118Z,20.23
2023-02-16T13:31:53.218Z,19.40
2023-02-16T13:34:47.639Z,19.77
2023-02-16T13:37:45.753Z,20.30
2023-02-16T13:40:25.954Z,19.60
2023-02-16T13:43:09.561Z,18.98
2023-02-16T13:45:41.866Z,19.50
2023-02-16T13:48:17.273Z,18.20
2023-02-16T13:50:46.695Z,18.17
2023-02-16T13:53:22.615Z,19.23
2023-02-16T13:55:50.745Z,18.50
2023-02-16T13:58:30.789Z,19.05
2023-02-16T14:00:59.087Z,18.58
2023-02-16T14:03:40.043Z,20.20
2023-02-16T14:06:32.866Z,18.85
2023-02-16T14:09:48.887Z,19.10
2023-02-16T14:12:21.753Z,18.73
2023-02-16T14:15:04.502Z,18.20
2023-02-16T14:17:35.132Z,19.85
2023-02-16T14:20:06.635Z,18.33
2023-02-16T14:22:41.802Z,19.02
2023-02-16T14:25:38.824Z,19.58
2023-02-16T14:28:58.500Z,18.33
2023-02-16T14:31:27.845Z,19.10
2023-02-16T14:34:04.590Z,18.83
2023-02-16T14:36:33.212Z,18.83
2023-02-16T14:39:02.092Z,19.25
2023-02-16T14:41:33.341Z,18.95
2023-02-16T14:44:31.249Z,20.45
2023-02-16T14:47:12.869Z,19.30
2023-02-16T14:50:09.309Z,18.17
2023-02-16T14:52:53.867Z,18.60
2023-02-16T14:55:36.617Z,17.92
2023-02-16T14:58:17.912Z,17.67
2023-02-16T15:00:51.535Z,17.95
2023-02-16T15:03:23.484Z,19.55
2023-02-16T15:05:57.845Z,18.63
2023-02-16T15:08:35.082Z,18.92
2023-02-16T15:11:13.780Z,19.00
2023-02-16T15:13:42.877Z,18.90
2023-02-16T15:16:15.340Z,18.48
2023-02-16T15:18:46.424Z,17.92
2023-02-16T15:21:19.571Z,19.55
2023-02-16T15:23:53.190Z,18.45
2023-02-16T15:26:22.906Z,17.73
2023-02-16T15:28:55.846Z,17.88
2023-02-16T15:31:30.988Z,17.55
2023-02-16T15:34:01.313Z,17.95
2023-02-16T15:36:33.810Z,18.33
2023-02-16T15:39:05.046Z,17.45
2023-02-16T15:41:35.070Z,17.88
2023-02-16T15:44:04.876Z,18.08
2023-02-16T15:46:36.974Z,17.20
2023-02-16T15:49:13.241Z,17.05
2023-02-16T15:51:43.152Z,16.50
2023-02-16T15:54:23.221Z,17.67
2023-02-16T15:56:52.532Z,17.27
2023-02-16T15:59:31.488Z,17.00
2023-02-16T16:02:04.929Z,16.35
2023-02-16T16:04:38.469Z,17.05
2023-02-16T16:07:08.326Z,16.73
2023-02-16T16:09:37.368Z,17.02
2023-02-16T16:12:08.257Z,17.63
2023-02-16T16:14:39.463Z,16.48
2023-02-16T16:17:13.924Z,16.35
2023-02-16T16:19:41.711Z,16.20
2023-02-16T16:22:31.804Z,16.98
2023-02-16T16:25:00.039Z,16.30
2023-02-16T16:27:32.979Z,16.45
2023-02-16T16:30:26.379Z,16.88
2023-02-16T16:33:03.957Z,16.25
2023-02-16T16:35:38.135Z,15.77
2023-02-16T16:38:07.656Z,16.73
2023-02-16T16:40:37.097Z,16.98
2023-02-16T16:43:18.316Z,15.88
2023-02-16T16:45:47.738Z,15.90
2023-02-16T16:48:19.903Z,15.95
2023-02-16T16:50:48.684Z,16.63
2023-02-16T16:53:51.291Z,16.45
2023-02-16T16:56:19.440Z,15.98
2023-02-16T16:58:50.227Z,16.40
2023-02-16T17:01:18.923Z,15.38
2023-02-16T17:03:48.612Z,15.88
2023-02-16T17:06:17.632Z,14.93
2023-02-16T17:08:45.667Z,14.75
2023-02-16T17:11:21.124Z,15.52
2023-02-16T17:13:48.952Z,17.15
2023-02-16T17:16:20.810Z,14.77
2023-02-16T17:18:49.962Z,15.55
2023-02-16T17:21:18.365Z,15.15
2023-02-16T17:23:52.894Z,15.07
2023-02-16T17:26:21.750Z,15.02
2023-02-16T17:28:50.306Z,15.80
2023-02-16T17:31:18.415Z,15.18
2023-02-16T17:33:46.306Z,14.65
2023-02-16T17:36:17.041Z,14.90
2023-02-16T17:38:45.256Z,16.23
2023-02-16T17:41:19.535Z,16.75
2023-02-16T17:43:47.310Z,15.32
2023-02-16T17:46:15.793Z,15.48
2023-02-16T17:48:43.867Z,14.93
2023-02-16T17:51:17.226Z,14.98
2023-02-16T17:53:45.022Z,15.10
2023-02-16T17:56:14.068Z,14.68
2023-02-16T17:58:42.722Z,13.88
2023-02-16T18:01:13.837Z,13.95
2023-02-16T18:03:41.797Z,14.02
2023-02-16T18:06:14.480Z,14.05
2023-02-16T18:08:44.214Z,14.55
2023-02-16T18:11:12.353Z,14.70
2023-02-16T18:13:40.249Z,14.60
2023-02-16T18:16:08.382Z,14.13
2023-02-16T18:18:39.131Z,13.73
2023-02-16T18:21:08.029Z,13.68
2023-02-16T18:23:36.329Z,14.18
2023-02-16T18:26:06.989Z,13.32
2023-02-16T18:28:35.886Z,12.40
2023-02-16T18:31:06.745Z,12.00
2023-02-16T18:33:35.239Z,11.27
2023-02-16T18:36:03.346Z,10.32
2023-02-16T18:38:31.731Z,11.63
2023-02-16T18:40:59.788Z,11.65
2023-02-16T18:43:29.002Z,11.70
2023-02-16T18:45:56.867Z,13.55
2023-02-16T18:48:24.622Z,12.35
2023-02-16T18:50:52.378Z,11.70
2023-02-16T18:53:20.209Z,10.83
2023-02-16T18:55:47.978Z,12.33
2023-02-16T18:58:15.979Z,12.50
2023-02-16T19:00:45.085Z,11.05
2023-02-16T19:03:12.896Z,11.53
2023-02-16T19:05:40.682Z,11.55
2023-02-16T19:08:08.507Z,12.23
2023-02-16T19:10:36.327Z,12.17
2023-02-16T19:13:05.123Z,11.23
2023-02-16T19:15:33.247Z,12.30
2023-02-16T19:18:02.473Z,11.77
2023-02-16T19:20:30.789Z,11.03
2023-02-16T19:22:58.548Z,10.70
2023-02-16T19:25:26.841Z,10.60
2023-02-16T19:27:54.675Z,9.85
2023-02-16T19:30:24.164Z,9.67
2023-02-16T19:32:52.273Z,9.90
2023-02-16T19:35:21.598Z,10.83
2023-02-16T19:37:49.414Z,10.70
2023-02-16T19:40:17.280Z,10.80
2023-02-16T19:42:45.643Z,10.87
2023-02-16T19:45:13.564Z,10.18
2023-02-16T19:47:41.357Z,10.68
2023-02-16T19:50:09.611Z,11.10
2023-02-16T19:52:38.727Z,11.97
2023-02-16T19:55:06.978Z,11.30
2023-02-16T19:57:34.791Z,12.87
2023-02-16T20:00:04.030Z,13.23
2023-02-16T20:02:39.715Z,14.10
2023-02-16T20:05:09.671Z,15.23
2023-02-16T20:07:40.930Z,15.37
2023-02-16T20:10:09.342Z,15.47
2023-02-16T20:12:37.637Z,16.53
2023-02-16T20:15:06.379Z,17.30
2023-02-16T20:17:34.116Z,17.07
2023-02-16T20:20:01.892Z,17.97
2023-02-16T20:22:29.628Z,17.87
2023-02-16T20:24:58.808Z,19.10
2023-02-16T20:27:27.777Z,18.27
2023-02-16T20:29:55.669Z,17.80
2023-02-16T20:32:25.208Z,18.97
2023-02-16T20:34:52.980Z,19.20
2023-02-16T20:37:21.691Z,19.13
2023-02-16T20:39:49.506Z,20.47
2023-02-16T20:42:18.907Z,19.60
2023-02-16T20:44:46.718Z,19.60
2023-02-16T20:47:14.672Z,20.70
2023-02-16T20:49:42.570Z,20.43
2023-02-16T20:52:11.102Z,19.33
2023-02-16T20:54:39.119Z,19.00
2023-02-16T20:57:15.498Z,19.53
2023-02-16T20:59:50.733Z,18.67
2023-02-16T21:02:18.807Z,19.00
2023-02-16T21:04:46.573Z,21.67
2023-02-16T21:07:14.361Z,21.93
2023-02-16T21:09:42.531Z,21.87
2023-02-16T21:12:10.403Z,21.47
2023-02-16T21:14:38.303Z,21.60
2023-02-16T21:17:07.546Z,22.80
2023-02-16T21:19:35.250Z,24.73
2023-02-16T21:22:03.054Z,24.00
2023-02-16T21:24:30.818Z,25.13
2023-02-16T21:26:58.556Z,25.37
2023-02-16T21:29:26.392Z,24.50
2023-02-16T21:31:54.200Z,23.57
2023-02-16T21:34:24.225Z,24.30
2023-02-16T21:36:52.111Z,24.20
2023-02-16T21:39:39.967Z,23.30
2023-02-16T21:42:07.015Z,24.43
2023-02-16T21:44:39.884Z,25.83
2023-02-16T21:47:25.458Z,25.00
2023-02-16T21:49:54.622Z,26.80
2023-02-16T21:52:22.454Z,25.67
2023-02-16T21:55:07.631Z,25.90
2023-02-16T21:57:35.519Z,25.30
2023-02-16T22:00:06.049Z,27.80
2023-02-16T22:02:34.110Z,25.47
2023-02-16T22:05:03.239Z,23.83
2023-02-16T22:07:31.263Z,23.20
2023-02-16T22:09:59.188Z,24.33
2023-02-16T22:12:26.970Z,23.17
2023-02-16T22:14:54.702Z,22.53
2023-02-16T22:17:22.471Z,21.13
2023-02-16T22:19:51.121Z,20.53
2023-02-16T22:22:20.291Z,20.33
2023-02-16T22:24:48.063Z,19.80
2023-02-16T22:27:15.818Z,18.00
2023-02-16T22:29:43.795Z,18.47
2023-02-16T22:32:12.817Z,18.50
2023-02-16T22:34:40.767Z,19.23
2023-02-16T22:37:08.515Z,18.23
2023-02-16T22:39:37.650Z,18.23
2023-02-16T22:42:05.628Z,19.60
2023-02-16T22:44:33.365Z,20.10
2023-02-16T22:47:01.144Z,19.87
2023-02-16T22:49:28.946Z,19.23
2023-02-16T22:51:57.535Z,19.60
2023-02-16T22:54:25.603Z,19.27
2023-02-16T22:56:54.734Z,19.97
2023-02-16T22:59:22.552Z,21.87
2023-02-16T23:01:50.988Z,20.70
2023-02-16T23:04:18.786Z,22.00
2023-02-16T23:06:46.665Z,21.83
2023-02-16T23:09:16.492Z,20.63
2023-02-16T23:11:44.606Z,21.70
2023-02-16T23:14:17.220Z,22.50
2023-02-16T23:16:46.098Z,22.37
2023-02-16T23:19:16.369Z,23.70
2023-02-16T23:21:44.713Z,22.60
2023-02-16T23:24:14.954Z,22.80
2023-02-16T23:26:43.746Z,24.17
2023-02-16T23:29:13.482Z,23.57
2023-02-16T23:31:43.626Z,23.63
2023-02-16T23:34:12.565Z,23.70
2023-02-16T23:36:40.875Z,23.77
2023-02-16T23:39:11.176Z,24.40
2023-02-16T23:41:39.056Z,24.13
2023-02-16T23:44:07.210Z,25.30
2023-02-16T23:46:36.607Z,24.87
2023-02-16T23:49:04.747Z,24.97
2023-02-16T23:51:32.502Z,24.70
2023-02-16T23:54:00.294Z,25.43
2023-02-16T23:56:29.457Z,25.67
2023-02-16T23:58:59.175Z,24.57
